Terminal Aerodrome Forecast
Issued by NWS

Home | Current Version | Previous Version | Text Only | Print | Product List | Glossary On
Versions: 1 2 3 4 5 6 7 8 9 10 11 12
332
FTUS45 KRIW 280522
TAFCPR
TAF
KCPR 280522Z 2806/2906 23010KT P6SM SCT200
     FM281200 22015G25KT P6SM SCT200
     FM281900 25012G18KT P6SM FEW120 SCT200
     FM282300 28007KT P6SM SCT200
     FM290200 VRB05KT P6SM SCT200=

USA.gov is the U.S. government's official web portal to all federal, state and local government web resources and services.